sensor_id;sensor_type;location;lat;lon;timestamp;P1;durP1;ratioP1;P2;durP2;ratioP2
19167;SDS011;9716;53.114;18.040;2023-08-06T00:01:06;3.60;;;1.80;;
19167;SDS011;9716;53.114;18.040;2023-08-06T00:03:49;2.63;;;1.98;;
19167;SDS011;9716;53.114;18.040;2023-08-06T00:06:22;2.90;;;1.83;;
19167;SDS011;9716;53.114;18.040;2023-08-06T00:08:55;2.70;;;1.85;;
19167;SDS011;9716;53.114;18.040;2023-08-06T00:11:26;3.42;;;2.00;;
19167;SDS011;9716;53.114;18.040;2023-08-06T00:13:59;3.78;;;2.17;;
19167;SDS011;9716;53.114;18.040;2023-08-06T00:16:34;4.15;;;1.77;;
19167;SDS011;9716;53.114;18.040;2023-08-06T00:19:03;2.35;;;1.70;;
19167;SDS011;9716;53.114;18.040;2023-08-06T00:21:36;4.85;;;2.47;;
19167;SDS011;9716;53.114;18.040;2023-08-06T00:24:10;3.70;;;1.65;;
19167;SDS011;9716;53.114;18.040;2023-08-06T00:26:45;3.13;;;2.13;;
19167;SDS011;9716;53.114;18.040;2023-08-06T00:29:21;3.15;;;1.70;;
19167;SDS011;9716;53.114;18.040;2023-08-06T00:31:56;2.22;;;1.67;;
19167;SDS011;9716;53.114;18.040;2023-08-06T00:34:26;2.83;;;1.85;;
19167;SDS011;9716;53.114;18.040;2023-08-06T00:37:00;5.85;;;1.70;;
19167;SDS011;9716;53.114;18.040;2023-08-06T00:39:29;4.97;;;1.95;;
19167;SDS011;9716;53.114;18.040;2023-08-06T00:42:02;5.60;;;2.00;;
19167;SDS011;9716;53.114;18.040;2023-08-06T00:44:35;1.90;;;1.67;;
19167;SDS011;9716;53.114;18.040;2023-08-06T00:47:10;2.88;;;1.75;;
19167;SDS011;9716;53.114;18.040;2023-08-06T00:49:40;4.30;;;1.70;;
19167;SDS011;9716;53.114;18.040;2023-08-06T00:52:20;2.70;;;1.40;;
19167;SDS011;9716;53.114;18.040;2023-08-06T00:54:51;3.42;;;1.98;;
19167;SDS011;9716;53.114;18.040;2023-08-06T00:57:27;2.67;;;1.60;;
19167;SDS011;9716;53.114;18.040;2023-08-06T01:00:00;2.65;;;2.13;;
19167;SDS011;9716;53.114;18.040;2023-08-06T01:02:33;2.88;;;1.95;;
19167;SDS011;9716;53.114;18.040;2023-08-06T01:05:08;3.08;;;1.88;;
19167;SDS011;9716;53.114;18.040;2023-08-06T01:07:45;2.40;;;1.63;;
19167;SDS011;9716;53.114;18.040;2023-08-06T01:10:30;3.53;;;2.25;;
19167;SDS011;9716;53.114;18.040;2023-08-06T01:13:16;2.47;;;1.90;;
19167;SDS011;9716;53.114;18.040;2023-08-06T01:15:58;2.65;;;1.88;;
19167;SDS011;9716;53.114;18.040;2023-08-06T01:21:47;3.30;;;2.30;;
19167;SDS011;9716;53.114;18.040;2023-08-06T01:24:18;2.45;;;1.65;;
19167;SDS011;9716;53.114;18.040;2023-08-06T01:26:57;2.55;;;1.95;;
19167;SDS011;9716;53.114;18.040;2023-08-06T01:29:39;2.22;;;1.80;;
19167;SDS011;9716;53.114;18.040;2023-08-06T01:32:15;3.38;;;2.45;;
19167;SDS011;9716;53.114;18.040;2023-08-06T01:34:52;3.22;;;1.80;;
19167;SDS011;9716;53.114;18.040;2023-08-06T01:37:28;1.70;;;1.58;;
19167;SDS011;9716;53.114;18.040;2023-08-06T01:40:08;4.20;;;1.80;;
19167;SDS011;9716;53.114;18.040;2023-08-06T01:42:39;2.65;;;1.95;;
19167;SDS011;9716;53.114;18.040;2023-08-06T01:45:12;1.83;;;1.60;;
19167;SDS011;9716;53.114;18.040;2023-08-06T01:47:49;3.15;;;1.60;;
19167;SDS011;9716;53.114;18.040;2023-08-06T01:50:42;3.83;;;2.03;;
19167;SDS011;9716;53.114;18.040;2023-08-06T01:53:17;1.70;;;1.55;;
19167;SDS011;9716;53.114;18.040;2023-08-06T01:55:52;7.63;;;2.33;;
19167;SDS011;9716;53.114;18.040;2023-08-06T01:58:24;1.88;;;1.60;;
19167;SDS011;9716;53.114;18.040;2023-08-06T02:01:02;2.53;;;2.05;;
19167;SDS011;9716;53.114;18.040;2023-08-06T02:03:32;3.15;;;1.85;;
19167;SDS011;9716;53.114;18.040;2023-08-06T02:06:11;3.83;;;2.03;;
19167;SDS011;9716;53.114;18.040;2023-08-06T02:08:48;4.22;;;2.03;;
19167;SDS011;9716;53.114;18.040;2023-08-06T02:11:20;2.55;;;1.33;;
19167;SDS011;9716;53.114;18.040;2023-08-06T02:13:49;2.40;;;1.77;;
19167;SDS011;9716;53.114;18.040;2023-08-06T02:16:21;6.13;;;2.70;;
19167;SDS011;9716;53.114;18.040;2023-08-06T02:18:52;1.50;;;1.40;;
19167;SDS011;9716;53.114;18.040;2023-08-06T02:21:26;1.58;;;1.48;;
19167;SDS011;9716;53.114;18.040;2023-08-06T02:24:05;3.08;;;1.58;;
19167;SDS011;9716;53.114;18.040;2023-08-06T02:26:44;1.60;;;1.40;;
19167;SDS011;9716;53.114;18.040;2023-08-06T02:29:20;3.70;;;1.98;;
19167;SDS011;9716;53.114;18.040;2023-08-06T02:31:50;4.38;;;1.95;;
19167;SDS011;9716;53.114;18.040;2023-08-06T02:34:24;1.63;;;1.48;;
19167;SDS011;9716;53.114;18.040;2023-08-06T02:37:03;2.15;;;1.58;;
19167;SDS011;9716;53.114;18.040;2023-08-06T02:39:58;2.20;;;1.30;;
19167;SDS011;9716;53.114;18.040;2023-08-06T02:42:39;3.47;;;1.80;;
19167;SDS011;9716;53.114;18.040;2023-08-06T02:45:12;12.07;;;1.58;;
19167;SDS011;9716;53.114;18.040;2023-08-06T02:47:53;1.52;;;1.35;;
19167;SDS011;9716;53.114;18.040;2023-08-06T02:50:29;1.80;;;1.50;;
19167;SDS011;9716;53.114;18.040;2023-08-06T02:53:02;1.73;;;1.30;;
19167;SDS011;9716;53.114;18.040;2023-08-06T02:55:37;2.10;;;1.65;;
19167;SDS011;9716;53.114;18.040;2023-08-06T02:58:08;1.58;;;1.38;;
19167;SDS011;9716;53.114;18.040;2023-08-06T03:00:37;2.65;;;1.42;;
19167;SDS011;9716;53.114;18.040;2023-08-06T03:03:10;2.28;;;1.75;;
19167;SDS011;9716;53.114;18.040;2023-08-06T03:05:41;1.45;;;1.17;;
19167;SDS011;9716;53.114;18.040;2023-08-06T03:08:20;2.42;;;1.48;;
19167;SDS011;9716;53.114;18.040;2023-08-06T03:10:56;3.13;;;1.55;;
19167;SDS011;9716;53.114;18.040;2023-08-06T03:13:26;3.60;;;1.65;;
19167;SDS011;9716;53.114;18.040;2023-08-06T03:15:57;1.30;;;1.20;;
19167;SDS011;9716;53.114;18.040;2023-08-06T03:18:30;2.08;;;1.70;;
19167;SDS011;9716;53.114;18.040;2023-08-06T03:20:59;11.00;;;1.48;;
19167;SDS011;9716;53.114;18.040;2023-08-06T03:23:33;2.80;;;1.70;;
19167;SDS011;9716;53.114;18.040;2023-08-06T03:26:11;1.30;;;1.10;;
19167;SDS011;9716;53.114;18.040;2023-08-06T03:28:50;1.42;;;1.33;;
19167;SDS011;9716;53.114;18.040;2023-08-06T03:31:28;4.15;;;1.20;;
19167;SDS011;9716;53.114;18.040;2023-08-06T03:34:05;1.70;;;1.30;;
19167;SDS011;9716;53.114;18.040;2023-08-06T03:36:37;1.67;;;1.48;;
19167;SDS011;9716;53.114;18.040;2023-08-06T03:39:08;1.85;;;1.55;;
19167;SDS011;9716;53.114;18.040;2023-08-06T03:41:40;2.70;;;1.45;;
19167;SDS011;9716;53.114;18.040;2023-08-06T03:44:12;2.45;;;1.73;;
19167;SDS011;9716;53.114;18.040;2023-08-06T03:46:44;5.20;;;1.83;;
19167;SDS011;9716;53.114;18.040;2023-08-06T03:49:18;5.07;;;1.63;;
19167;SDS011;9716;53.114;18.040;2023-08-06T03:51:48;1.33;;;1.23;;
19167;SDS011;9716;53.114;18.040;2023-08-06T03:54:19;1.95;;;1.45;;
19167;SDS011;9716;53.114;18.040;2023-08-06T03:56:52;7.53;;;2.03;;
19167;SDS011;9716;53.114;18.040;2023-08-06T03:59:23;1.25;;;1.05;;
19167;SDS011;9716;53.114;18.040;2023-08-06T04:01:52;1.80;;;1.42;;
19167;SDS011;9716;53.114;18.040;2023-08-06T04:04:23;2.58;;;1.63;;
19167;SDS011;9716;53.114;18.040;2023-08-06T04:06:57;2.58;;;1.60;;
19167;SDS011;9716;53.114;18.040;2023-08-06T04:09:32;1.63;;;1.40;;
19167;SDS011;9716;53.114;18.040;2023-08-06T04:12:06;2.08;;;1.60;;
19167;SDS011;9716;53.114;18.040;2023-08-06T04:14:42;1.52;;;1.40;;
19167;SDS011;9716;53.114;18.040;2023-08-06T04:17:11;1.55;;;1.00;;
19167;SDS011;9716;53.114;18.040;2023-08-06T04:19:40;3.05;;;1.83;;
19167;SDS011;9716;53.114;18.040;2023-08-06T04:22:09;2.15;;;1.23;;
19167;SDS011;9716;53.114;18.040;2023-08-06T04:24:38;3.00;;;1.70;;
19167;SDS011;9716;53.114;18.040;2023-08-06T04:27:10;2.45;;;1.65;;
19167;SDS011;9716;53.114;18.040;2023-08-06T04:29:40;1.27;;;1.17;;
19167;SDS011;9716;53.114;18.040;2023-08-06T04:32:10;2.10;;;1.40;;
19167;SDS011;9716;53.114;18.040;2023-08-06T04:34:40;1.73;;;1.30;;
19167;SDS011;9716;53.114;18.040;2023-08-06T04:37:12;1.60;;;1.40;;
19167;SDS011;9716;53.114;18.040;2023-08-06T04:39:46;2.10;;;1.25;;
19167;SDS011;9716;53.114;18.040;2023-08-06T04:42:20;3.45;;;1.35;;
19167;SDS011;9716;53.114;18.040;2023-08-06T04:44:52;1.10;;;1.00;;
19167;SDS011;9716;53.114;18.040;2023-08-06T04:47:21;1.60;;;1.48;;
19167;SDS011;9716;53.114;18.040;2023-08-06T04:49:56;2.30;;;1.70;;
19167;SDS011;9716;53.114;18.040;2023-08-06T04:52:26;1.50;;;1.40;;
19167;SDS011;9716;53.114;18.040;2023-08-06T04:55:01;1.00;;;1.00;;
19167;SDS011;9716;53.114;18.040;2023-08-06T04:57:37;2.30;;;1.30;;
19167;SDS011;9716;53.114;18.040;2023-08-06T05:00:08;2.45;;;1.23;;
19167;SDS011;9716;53.114;18.040;2023-08-06T05:02:40;1.20;;;1.10;;
19167;SDS011;9716;53.114;18.040;2023-08-06T05:05:11;0.82;;;0.82;;
19167;SDS011;9716;53.114;18.040;2023-08-06T05:07:43;2.08;;;1.35;;
19167;SDS011;9716;53.114;18.040;2023-08-06T05:10:18;1.52;;;1.42;;
19167;SDS011;9716;53.114;18.040;2023-08-06T05:12:49;1.88;;;1.63;;
19167;SDS011;9716;53.114;18.040;2023-08-06T05:15:21;1.25;;;1.15;;
19167;SDS011;9716;53.114;18.040;2023-08-06T05:17:55;2.65;;;1.48;;
19167;SDS011;9716;53.114;18.040;2023-08-06T05:20:27;2.03;;;1.80;;
19167;SDS011;9716;53.114;18.040;2023-08-06T05:22:57;2.08;;;1.40;;
19167;SDS011;9716;53.114;18.040;2023-08-06T05:25:27;4.18;;;1.70;;
19167;SDS011;9716;53.114;18.040;2023-08-06T05:28:04;1.75;;;1.55;;
19167;SDS011;9716;53.114;18.040;2023-08-06T05:30:42;1.60;;;1.15;;
19167;SDS011;9716;53.114;18.040;2023-08-06T05:33:13;4.45;;;3.00;;
19167;SDS011;9716;53.114;18.040;2023-08-06T05:35:44;3.08;;;2.08;;
19167;SDS011;9716;53.114;18.040;2023-08-06T05:38:17;4.07;;;2.00;;
19167;SDS011;9716;53.114;18.040;2023-08-06T05:40:50;2.83;;;1.73;;
19167;SDS011;9716;53.114;18.040;2023-08-06T05:43:25;2.05;;;1.67;;
19167;SDS011;9716;53.114;18.040;2023-08-06T05:45:58;2.75;;;2.08;;
19167;SDS011;9716;53.114;18.040;2023-08-06T05:48:28;2.13;;;1.88;;
19167;SDS011;9716;53.114;18.040;2023-08-06T05:51:00;2.75;;;1.92;;
19167;SDS011;9716;53.114;18.040;2023-08-06T05:53:29;2.90;;;1.75;;
19167;SDS011;9716;53.114;18.040;2023-08-06T05:56:05;3.65;;;2.00;;
19167;SDS011;9716;53.114;18.040;2023-08-06T05:58:39;4.00;;;2.03;;
19167;SDS011;9716;53.114;18.040;2023-08-06T06:01:09;2.17;;;1.98;;
19167;SDS011;9716;53.114;18.040;2023-08-06T06:03:40;4.35;;;2.28;;
19167;SDS011;9716;53.114;18.040;2023-08-06T06:06:10;4.88;;;2.35;;
19167;SDS011;9716;53.114;18.040;2023-08-06T06:08:43;8.48;;;2.38;;
19167;SDS011;9716;53.114;18.040;2023-08-06T06:11:17;2.88;;;1.92;;
19167;SDS011;9716;53.114;18.040;2023-08-06T06:13:50;3.85;;;2.67;;
19167;SDS011;9716;53.114;18.040;2023-08-06T06:16:25;6.82;;;2.50;;
19167;SDS011;9716;53.114;18.040;2023-08-06T06:18:55;3.25;;;2.40;;
19167;SDS011;9716;53.114;18.040;2023-08-06T06:21:25;5.72;;;2.47;;
19167;SDS011;9716;53.114;18.040;2023-08-06T06:23:55;5.22;;;2.95;;
19167;SDS011;9716;53.114;18.040;2023-08-06T06:26:28;2.72;;;2.25;;
19167;SDS011;9716;53.114;18.040;2023-08-06T06:29:03;3.22;;;2.38;;
19167;SDS011;9716;53.114;18.040;2023-08-06T06:31:37;4.75;;;3.00;;
19167;SDS011;9716;53.114;18.040;2023-08-06T06:34:13;3.92;;;2.58;;
19167;SDS011;9716;53.114;18.040;2023-08-06T06:36:46;5.05;;;3.17;;
19167;SDS011;9716;53.114;18.040;2023-08-06T06:39:17;4.65;;;2.70;;
19167;SDS011;9716;53.114;18.040;2023-08-06T06:41:55;4.68;;;2.85;;
19167;SDS011;9716;53.114;18.040;2023-08-06T06:44:30;2.78;;;2.10;;
19167;SDS011;9716;53.114;18.040;2023-08-06T06:47:04;5.15;;;3.13;;
19167;SDS011;9716;53.114;18.040;2023-08-06T06:49:33;3.88;;;2.45;;
19167;SDS011;9716;53.114;18.040;2023-08-06T06:52:04;5.70;;;3.05;;
19167;SDS011;9716;53.114;18.040;2023-08-06T06:54:35;3.60;;;2.50;;
19167;SDS011;9716;53.114;18.040;2023-08-06T06:57:08;4.00;;;2.53;;
19167;SDS011;9716;53.114;18.040;2023-08-06T06:59:46;4.03;;;2.58;;
19167;SDS011;9716;53.114;18.040;2023-08-06T07:02:20;3.38;;;1.88;;
19167;SDS011;9716;53.114;18.040;2023-08-06T07:04:50;6.15;;;2.75;;
19167;SDS011;9716;53.114;18.040;2023-08-06T07:07:20;6.80;;;3.05;;
19167;SDS011;9716;53.114;18.040;2023-08-06T07:09:54;4.18;;;3.10;;
19167;SDS011;9716;53.114;18.040;2023-08-06T07:12:26;5.18;;;2.85;;
19167;SDS011;9716;53.114;18.040;2023-08-06T07:14:58;3.83;;;2.88;;
19167;SDS011;9716;53.114;18.040;2023-08-06T07:17:28;5.57;;;3.10;;
19167;SDS011;9716;53.114;18.040;2023-08-06T07:20:00;5.32;;;2.90;;
19167;SDS011;9716;53.114;18.040;2023-08-06T07:22:31;4.20;;;3.03;;
19167;SDS011;9716;53.114;18.040;2023-08-06T07:25:01;7.90;;;3.72;;
19167;SDS011;9716;53.114;18.040;2023-08-06T07:27:32;6.82;;;3.28;;
19167;SDS011;9716;53.114;18.040;2023-08-06T07:30:04;5.53;;;3.55;;
19167;SDS011;9716;53.114;18.040;2023-08-06T07:32:40;5.25;;;3.55;;
19167;SDS011;9716;53.114;18.040;2023-08-06T07:35:10;7.70;;;3.85;;
19167;SDS011;9716;53.114;18.040;2023-08-06T07:37:45;15.02;;;3.67;;
19167;SDS011;9716;53.114;18.040;2023-08-06T07:40:17;4.20;;;2.90;;
19167;SDS011;9716;53.114;18.040;2023-08-06T07:42:47;4.85;;;2.75;;
19167;SDS011;9716;53.114;18.040;2023-08-06T07:45:22;7.35;;;3.10;;
19167;SDS011;9716;53.114;18.040;2023-08-06T07:47:58;10.50;;;2.90;;
19167;SDS011;9716;53.114;18.040;2023-08-06T07:50:27;4.28;;;2.72;;
19167;SDS011;9716;53.114;18.040;2023-08-06T07:53:02;5.15;;;2.78;;
19167;SDS011;9716;53.114;18.040;2023-08-06T07:55:35;3.75;;;2.58;;
19167;SDS011;9716;53.114;18.040;2023-08-06T07:58:12;4.13;;;2.92;;
19167;SDS011;9716;53.114;18.040;2023-08-06T08:00:43;3.60;;;2.60;;
19167;SDS011;9716;53.114;18.040;2023-08-06T08:03:21;15.55;;;2.88;;
19167;SDS011;9716;53.114;18.040;2023-08-06T08:05:54;6.05;;;3.70;;
19167;SDS011;9716;53.114;18.040;2023-08-06T08:08:29;4.72;;;2.70;;
19167;SDS011;9716;53.114;18.040;2023-08-06T08:10:59;4.35;;;2.90;;
19167;SDS011;9716;53.114;18.040;2023-08-06T08:13:36;5.93;;;3.00;;
19167;SDS011;9716;53.114;18.040;2023-08-06T08:16:17;4.68;;;2.88;;
19167;SDS011;9716;53.114;18.040;2023-08-06T08:18:54;5.95;;;3.50;;
19167;SDS011;9716;53.114;18.040;2023-08-06T08:21:28;4.60;;;3.17;;
19167;SDS011;9716;53.114;18.040;2023-08-06T08:24:03;5.35;;;3.22;;
19167;SDS011;9716;53.114;18.040;2023-08-06T08:26:40;4.10;;;3.00;;
19167;SDS011;9716;53.114;18.040;2023-08-06T08:29:13;3.22;;;2.50;;
19167;SDS011;9716;53.114;18.040;2023-08-06T08:31:48;4.72;;;3.00;;
19167;SDS011;9716;53.114;18.040;2023-08-06T08:34:28;6.00;;;3.15;;
19167;SDS011;9716;53.114;18.040;2023-08-06T08:37:01;7.72;;;2.88;;
19167;SDS011;9716;53.114;18.040;2023-08-06T08:39:38;9.05;;;3.42;;
19167;SDS011;9716;53.114;18.040;2023-08-06T08:42:09;4.10;;;2.78;;
19167;SDS011;9716;53.114;18.040;2023-08-06T08:44:46;3.55;;;2.60;;
19167;SDS011;9716;53.114;18.040;2023-08-06T08:47:22;4.68;;;3.05;;
19167;SDS011;9716;53.114;18.040;2023-08-06T08:49:57;3.60;;;2.70;;
19167;SDS011;9716;53.114;18.040;2023-08-06T08:52:40;3.53;;;3.00;;
19167;SDS011;9716;53.114;18.040;2023-08-06T08:55:15;3.83;;;2.75;;
19167;SDS011;9716;53.114;18.040;2023-08-06T08:57:48;4.00;;;2.40;;
19167;SDS011;9716;53.114;18.040;2023-08-06T09:00:23;4.40;;;3.15;;
19167;SDS011;9716;53.114;18.040;2023-08-06T09:02:56;3.42;;;2.80;;
19167;SDS011;9716;53.114;18.040;2023-08-06T09:05:33;5.05;;;2.85;;
19167;SDS011;9716;53.114;18.040;2023-08-06T09:08:07;3.92;;;2.50;;
19167;SDS011;9716;53.114;18.040;2023-08-06T09:10:47;5.07;;;2.88;;
19167;SDS011;9716;53.114;18.040;2023-08-06T09:13:19;3.63;;;2.50;;
19167;SDS011;9716;53.114;18.040;2023-08-06T09:15:53;2.78;;;2.00;;
19167;SDS011;9716;53.114;18.040;2023-08-06T09:18:30;3.70;;;2.60;;
19167;SDS011;9716;53.114;18.040;2023-08-06T09:21:13;5.28;;;2.83;;
19167;SDS011;9716;53.114;18.040;2023-08-06T09:23:49;5.82;;;3.22;;
19167;SDS011;9716;53.114;18.040;2023-08-06T09:26:32;4.53;;;3.45;;
19167;SDS011;9716;53.114;18.040;2023-08-06T09:29:10;6.25;;;3.47;;
19167;SDS011;9716;53.114;18.040;2023-08-06T09:31:47;4.60;;;2.97;;
19167;SDS011;9716;53.114;18.040;2023-08-06T09:34:24;5.65;;;3.42;;
19167;SDS011;9716;53.114;18.040;2023-08-06T09:36:57;4.55;;;3.15;;
19167;SDS011;9716;53.114;18.040;2023-08-06T09:39:27;10.60;;;3.38;;
19167;SDS011;9716;53.114;18.040;2023-08-06T09:42:04;5.07;;;3.30;;
19167;SDS011;9716;53.114;18.040;2023-08-06T09:44:39;6.45;;;3.28;;
19167;SDS011;9716;53.114;18.040;2023-08-06T09:47:20;5.25;;;3.47;;
19167;SDS011;9716;53.114;18.040;2023-08-06T09:49:58;4.93;;;3.00;;
19167;SDS011;9716;53.114;18.040;2023-08-06T09:52:29;5.03;;;2.65;;
19167;SDS011;9716;53.114;18.040;2023-08-06T09:55:03;3.70;;;2.63;;
19167;SDS011;9716;53.114;18.040;2023-08-06T09:57:38;7.40;;;2.75;;
19167;SDS011;9716;53.114;18.040;2023-08-06T10:00:12;6.70;;;3.30;;
19167;SDS011;9716;53.114;18.040;2023-08-06T10:02:48;5.30;;;3.55;;
19167;SDS011;9716;53.114;18.040;2023-08-06T10:05:26;7.90;;;3.83;;
19167;SDS011;9716;53.114;18.040;2023-08-06T10:07:59;5.60;;;3.08;;
19167;SDS011;9716;53.114;18.040;2023-08-06T10:10:35;5.30;;;3.63;;
19167;SDS011;9716;53.114;18.040;2023-08-06T10:13:12;6.28;;;3.85;;
19167;SDS011;9716;53.114;18.040;2023-08-06T10:15:44;6.35;;;3.28;;
19167;SDS011;9716;53.114;18.040;2023-08-06T10:18:17;4.85;;;3.17;;
19167;SDS011;9716;53.114;18.040;2023-08-06T10:20:54;4.78;;;3.55;;
19167;SDS011;9716;53.114;18.040;2023-08-06T10:23:32;4.28;;;3.20;;
19167;SDS011;9716;53.114;18.040;2023-08-06T10:26:06;4.50;;;3.53;;
19167;SDS011;9716;53.114;18.040;2023-08-06T10:28:41;5.30;;;3.58;;
19167;SDS011;9716;53.114;18.040;2023-08-06T10:31:17;4.60;;;3.38;;
19167;SDS011;9716;53.114;18.040;2023-08-06T10:33:58;8.13;;;3.55;;
19167;SDS011;9716;53.114;18.040;2023-08-06T10:36:31;7.63;;;3.42;;
19167;SDS011;9716;53.114;18.040;2023-08-06T10:39:06;8.18;;;4.60;;
19167;SDS011;9716;53.114;18.040;2023-08-06T10:41:57;3.63;;;3.10;;
19167;SDS011;9716;53.114;18.040;2023-08-06T10:44:28;11.35;;;3.53;;
19167;SDS011;9716;53.114;18.040;2023-08-06T10:47:12;5.45;;;3.45;;
19167;SDS011;9716;53.114;18.040;2023-08-06T10:49:58;4.15;;;2.83;;
19167;SDS011;9716;53.114;18.040;2023-08-06T10:52:36;3.90;;;2.65;;
19167;SDS011;9716;53.114;18.040;2023-08-06T10:55:14;6.03;;;3.47;;
19167;SDS011;9716;53.114;18.040;2023-08-06T10:57:56;5.30;;;3.30;;
19167;SDS011;9716;53.114;18.040;2023-08-06T11:00:56;6.15;;;3.30;;
19167;SDS011;9716;53.114;18.040;2023-08-06T11:03:44;4.25;;;3.03;;
19167;SDS011;9716;53.114;18.040;2023-08-06T11:06:22;11.50;;;3.40;;
19167;SDS011;9716;53.114;18.040;2023-08-06T11:09:05;4.80;;;3.40;;
19167;SDS011;9716;53.114;18.040;2023-08-06T11:11:55;3.25;;;2.55;;
19167;SDS011;9716;53.114;18.040;2023-08-06T11:14:54;5.50;;;2.53;;
19167;SDS011;9716;53.114;18.040;2023-08-06T11:17:38;3.45;;;2.58;;
19167;SDS011;9716;53.114;18.040;2023-08-06T11:20:12;4.90;;;3.13;;
19167;SDS011;9716;53.114;18.040;2023-08-06T11:22:46;4.78;;;2.58;;
19167;SDS011;9716;53.114;18.040;2023-08-06T11:25:21;3.60;;;2.28;;
19167;SDS011;9716;53.114;18.040;2023-08-06T11:27:55;4.15;;;2.70;;
19167;SDS011;9716;53.114;18.040;2023-08-06T11:30:28;3.58;;;2.42;;
19167;SDS011;9716;53.114;18.040;2023-08-06T11:33:02;3.47;;;2.55;;
19167;SDS011;9716;53.114;18.040;2023-08-06T11:35:46;4.72;;;2.60;;
19167;SDS011;9716;53.114;18.040;2023-08-06T11:38:27;2.90;;;2.60;;
19167;SDS011;9716;53.114;18.040;2023-08-06T11:41:03;3.88;;;3.05;;
19167;SDS011;9716;53.114;18.040;2023-08-06T11:43:35;4.80;;;3.05;;
19167;SDS011;9716;53.114;18.040;2023-08-06T11:46:09;5.85;;;2.90;;
19167;SDS011;9716;53.114;18.040;2023-08-06T11:48:54;3.47;;;2.35;;
19167;SDS011;9716;53.114;18.040;2023-08-06T11:51:26;5.57;;;3.40;;
19167;SDS011;9716;53.114;18.040;2023-08-06T11:54:02;4.53;;;3.03;;
19167;SDS011;9716;53.114;18.040;2023-08-06T11:56:40;3.38;;;2.88;;
19167;SDS011;9716;53.114;18.040;2023-08-06T11:59:11;5.43;;;3.13;;
19167;SDS011;9716;53.114;18.040;2023-08-06T12:01:42;6.72;;;3.60;;
19167;SDS011;9716;53.114;18.040;2023-08-06T12:04:18;4.55;;;3.40;;
19167;SDS011;9716;53.114;18.040;2023-08-06T12:06:48;7.53;;;3.80;;
19167;SDS011;9716;53.114;18.040;2023-08-06T12:09:24;4.93;;;3.35;;
19167;SDS011;9716;53.114;18.040;2023-08-06T12:12:05;7.53;;;4.03;;
19167;SDS011;9716;53.114;18.040;2023-08-06T12:14:40;6.35;;;3.47;;
19167;SDS011;9716;53.114;18.040;2023-08-06T12:17:17;8.32;;;4.22;;
19167;SDS011;9716;53.114;18.040;2023-08-06T12:20:00;6.65;;;4.22;;
19167;SDS011;9716;53.114;18.040;2023-08-06T12:22:35;7.55;;;3.47;;
19167;SDS011;9716;53.114;18.040;2023-08-06T12:25:15;8.35;;;4.85;;
19167;SDS011;9716;53.114;18.040;2023-08-06T12:27:50;7.95;;;4.20;;
19167;SDS011;9716;53.114;18.040;2023-08-06T12:30:24;14.00;;;4.80;;
19167;SDS011;9716;53.114;18.040;2023-08-06T12:32:57;8.27;;;5.20;;
19167;SDS011;9716;53.114;18.040;2023-08-06T12:35:31;8.48;;;4.47;;
19167;SDS011;9716;53.114;18.040;2023-08-06T12:38:11;8.57;;;5.78;;
19167;SDS011;9716;53.114;18.040;2023-08-06T12:40:45;11.15;;;5.53;;
19167;SDS011;9716;53.114;18.040;2023-08-06T12:43:23;9.05;;;5.57;;
19167;SDS011;9716;53.114;18.040;2023-08-06T12:45:59;9.48;;;5.93;;
19167;SDS011;9716;53.114;18.040;2023-08-06T12:48:30;9.25;;;5.97;;
19167;SDS011;9716;53.114;18.040;2023-08-06T12:51:06;12.63;;;6.18;;
19167;SDS011;9716;53.114;18.040;2023-08-06T12:53:36;11.70;;;6.28;;
19167;SDS011;9716;53.114;18.040;2023-08-06T12:56:10;10.02;;;5.97;;
19167;SDS011;9716;53.114;18.040;2023-08-06T12:58:41;8.95;;;5.82;;
19167;SDS011;9716;53.114;18.040;2023-08-06T13:01:16;11.85;;;7.20;;
19167;SDS011;9716;53.114;18.040;2023-08-06T13:03:54;13.52;;;7.47;;
19167;SDS011;9716;53.114;18.040;2023-08-06T13:06:48;9.45;;;6.40;;
19167;SDS011;9716;53.114;18.040;2023-08-06T13:09:25;10.75;;;5.85;;
19167;SDS011;9716;53.114;18.040;2023-08-06T13:12:10;9.88;;;6.00;;
19167;SDS011;9716;53.114;18.040;2023-08-06T13:14:42;9.52;;;6.47;;
19167;SDS011;9716;53.114;18.040;2023-08-06T13:17:17;11.95;;;6.15;;
19167;SDS011;9716;53.114;18.040;2023-08-06T13:19:59;11.68;;;6.88;;
19167;SDS011;9716;53.114;18.040;2023-08-06T13:22:54;10.90;;;6.25;;
19167;SDS011;9716;53.114;18.040;2023-08-06T13:25:26;12.65;;;6.57;;
19167;SDS011;9716;53.114;18.040;2023-08-06T13:28:06;13.38;;;6.55;;
19167;SDS011;9716;53.114;18.040;2023-08-06T13:30:42;12.85;;;5.53;;
19167;SDS011;9716;53.114;18.040;2023-08-06T13:33:17;12.98;;;5.18;;
19167;SDS011;9716;53.114;18.040;2023-08-06T13:35:52;12.60;;;6.63;;
19167;SDS011;9716;53.114;18.040;2023-08-06T13:38:27;14.77;;;6.85;;
19167;SDS011;9716;53.114;18.040;2023-08-06T13:41:00;9.23;;;6.25;;
19167;SDS011;9716;53.114;18.040;2023-08-06T13:43:38;10.82;;;6.50;;
19167;SDS011;9716;53.114;18.040;2023-08-06T13:46:14;12.60;;;6.18;;
19167;SDS011;9716;53.114;18.040;2023-08-06T13:48:47;8.63;;;5.40;;
19167;SDS011;9716;53.114;18.040;2023-08-06T13:51:20;16.85;;;6.78;;
19167;SDS011;9716;53.114;18.040;2023-08-06T13:53:54;13.65;;;7.18;;
19167;SDS011;9716;53.114;18.040;2023-08-06T13:56:26;7.63;;;4.70;;
19167;SDS011;9716;53.114;18.040;2023-08-06T13:59:00;9.88;;;6.32;;
19167;SDS011;9716;53.114;18.040;2023-08-06T14:01:35;8.75;;;5.43;;
19167;SDS011;9716;53.114;18.040;2023-08-06T14:04:23;11.13;;;6.72;;
19167;SDS011;9716;53.114;18.040;2023-08-06T14:07:07;7.45;;;5.70;;
19167;SDS011;9716;53.114;18.040;2023-08-06T14:09:40;11.18;;;6.18;;
19167;SDS011;9716;53.114;18.040;2023-08-06T14:12:14;10.80;;;5.60;;
19167;SDS011;9716;53.114;18.040;2023-08-06T14:14:48;15.75;;;7.07;;
19167;SDS011;9716;53.114;18.040;2023-08-06T14:17:31;9.73;;;5.78;;
19167;SDS011;9716;53.114;18.040;2023-08-06T14:20:08;12.52;;;7.20;;
19167;SDS011;9716;53.114;18.040;2023-08-06T14:22:41;13.13;;;6.18;;
19167;SDS011;9716;53.114;18.040;2023-08-06T14:25:15;9.48;;;5.15;;
19167;SDS011;9716;53.114;18.040;2023-08-06T14:27:51;10.85;;;6.07;;
19167;SDS011;9716;53.114;18.040;2023-08-06T14:30:30;8.88;;;6.25;;
19167;SDS011;9716;53.114;18.040;2023-08-06T14:33:11;8.48;;;5.20;;
19167;SDS011;9716;53.114;18.040;2023-08-06T14:35:55;11.30;;;5.50;;
19167;SDS011;9716;53.114;18.040;2023-08-06T14:38:26;9.70;;;5.72;;
19167;SDS011;9716;53.114;18.040;2023-08-06T14:41:13;11.50;;;6.00;;
19167;SDS011;9716;53.114;18.040;2023-08-06T14:43:44;7.10;;;4.75;;
19167;SDS011;9716;53.114;18.040;2023-08-06T14:46:17;9.18;;;4.78;;
19167;SDS011;9716;53.114;18.040;2023-08-06T14:48:57;6.63;;;4.75;;
19167;SDS011;9716;53.114;18.040;2023-08-06T14:51:36;8.13;;;4.22;;
19167;SDS011;9716;53.114;18.040;2023-08-06T14:54:09;6.22;;;3.90;;
19167;SDS011;9716;53.114;18.040;2023-08-06T14:56:41;5.93;;;3.90;;
19167;SDS011;9716;53.114;18.040;2023-08-06T14:59:14;8.25;;;4.10;;
19167;SDS011;9716;53.114;18.040;2023-08-06T15:01:52;6.95;;;3.88;;
19167;SDS011;9716;53.114;18.040;2023-08-06T15:04:28;4.88;;;3.50;;
19167;SDS011;9716;53.114;18.040;2023-08-06T15:07:02;2.58;;;2.10;;
19167;SDS011;9716;53.114;18.040;2023-08-06T15:09:36;8.93;;;3.00;;
19167;SDS011;9716;53.114;18.040;2023-08-06T15:12:31;4.18;;;2.70;;
19167;SDS011;9716;53.114;18.040;2023-08-06T15:15:08;4.70;;;2.88;;
19167;SDS011;9716;53.114;18.040;2023-08-06T15:17:44;4.63;;;3.40;;
19167;SDS011;9716;53.114;18.040;2023-08-06T15:20:21;7.68;;;3.45;;
19167;SDS011;9716;53.114;18.040;2023-08-06T15:23:12;3.65;;;2.60;;
19167;SDS011;9716;53.114;18.040;2023-08-06T15:25:50;3.42;;;2.40;;
19167;SDS011;9716;53.114;18.040;2023-08-06T15:28:20;6.60;;;2.10;;
19167;SDS011;9716;53.114;18.040;2023-08-06T15:30:55;2.50;;;2.30;;
19167;SDS011;9716;53.114;18.040;2023-08-06T15:33:25;3.92;;;2.10;;
19167;SDS011;9716;53.114;18.040;2023-08-06T15:36:05;3.25;;;2.03;;